Time;durP1;ratioP1;P1;durP2;ratioP2;P2;SDS_P1;SDS_P2;PMS_P1;PMS_P2;Temp;Humidity;BMP_temperature;BMP_pressure;BME280_temperature;BME280_humidity;BME280_pressure;Samples;Min_cycle;Max_cycle;Signal;HPM_P1;HPM_P2
2022/10/19 00:02:04;;;;;;;10.35;5.95;;;13.70;86.00;;;;;;5132507;27;20023;-76
2022/10/19 00:04:30;;;;;;;10.88;6.20;;;13.70;86.80;;;;;;5131831;27;20023;-76
2022/10/19 00:06:55;;;;;;;12.07;6.47;;;13.70;86.00;;;;;;5132056;27;20059;-76
2022/10/19 00:09:22;;;;;;;14.13;6.20;;;13.70;86.30;;;;;;5132252;27;20051;-78
2022/10/19 00:11:49;;;;;;;9.13;5.47;;;13.70;86.40;;;;;;5131972;27;20028;-75
2022/10/19 00:14:22;;;;;;;11.65;5.78;;;13.70;86.40;;;;;;5116084;28;20016;-76
2022/10/19 00:16:50;;;;;;;7.97;6.35;;;13.70;86.20;;;;;;5115046;28;20046;-76
2022/10/19 00:19:19;;;;;;;10.52;6.00;;;13.80;85.90;;;;;;5115281;28;20031;-76
2022/10/19 00:21:45;;;;;;;8.48;5.82;;;13.70;85.90;;;;;;5114700;28;20027;-77
2022/10/19 00:24:10;;;;;;;7.93;5.72;;;13.80;85.90;;;;;;5132085;27;20035;-77
2022/10/19 00:26:37;;;;;;;6.78;5.15;;;13.80;85.80;;;;;;5131512;27;20422;-77
2022/10/19 00:29:04;;;;;;;8.20;5.97;;;13.80;85.30;;;;;;5114944;28;20032;-77
2022/10/19 00:31:30;;;;;;;7.15;5.13;;;13.80;85.10;;;;;;5113686;28;20024;-77
2022/10/19 00:33:56;;;;;;;9.02;4.80;;;13.90;86.00;;;;;;5114411;27;20031;-77
2022/10/19 00:36:31;;;;;;;6.68;4.25;;;13.90;84.20;;;;;;5118071;27;20031;-77
2022/10/19 00:38:57;;;;;;;7.50;4.07;;;13.90;83.80;;;;;;5117957;27;20031;-77
2022/10/19 00:41:26;;;;;;;5.40;4.13;;;13.90;83.40;;;;;;5117858;27;20089;-76
2022/10/19 00:43:58;;;;;;;8.18;3.92;;;13.90;83.20;;;;;;5117816;27;20387;-76
2022/10/19 00:46:27;;;;;;;8.15;4.70;;;13.90;83.20;;;;;;5117894;27;20024;-76
2022/10/19 00:48:58;;;;;;;5.20;3.70;;;13.90;83.10;;;;;;5117686;27;20031;-76
2022/10/19 00:51:26;;;;;;;11.80;5.35;;;13.90;83.10;;;;;;5117233;27;20032;-77
2022/10/19 00:53:52;;;;;;;9.88;5.15;;;13.80;82.60;;;;;;5117365;27;20506;-76
2022/10/19 00:56:18;;;;;;;9.27;5.45;;;13.60;83.40;;;;;;5117692;27;20027;-77
2022/10/19 00:58:44;;;;;;;7.82;5.00;;;13.40;84.80;;;;;;5117405;27;20020;-77
2022/10/19 01:01:14;;;;;;;8.05;5.38;;;13.30;85.50;;;;;;5117650;27;20035;-77
2022/10/19 01:03:40;;;;;;;11.27;5.22;;;13.30;85.70;;;;;;5100763;27;20030;-77
2022/10/19 01:06:07;;;;;;;8.38;4.90;;;13.30;85.70;;;;;;5117424;27;20387;-77
2022/10/19 01:08:32;;;;;;;9.50;4.75;;;13.30;85.70;;;;;;5117166;27;20495;-78
2022/10/19 01:11:28;;;;;;;7.38;3.83;;;13.40;85.20;;;;;;5135513;27;20506;-77
2022/10/19 01:13:57;;;;;;;4.35;3.67;;;13.40;84.40;;;;;;5117181;27;20031;-77
2022/10/19 01:16:44;;;;;;;9.32;4.75;;;13.50;83.80;;;;;;5117144;27;20448;-76
2022/10/19 01:19:51;;;;;;;5.53;4.10;;;13.50;83.80;;;;;;5117095;27;20030;-77
2022/10/19 01:22:20;;;;;;;6.90;4.50;;;13.40;84.00;;;;;;5117452;27;20491;-77
2022/10/19 01:25:07;;;;;;;9.60;4.10;;;13.50;83.90;;;;;;5116975;27;20031;-77
2022/10/19 01:27:51;;;;;;;7.50;3.60;;;13.40;83.30;;;;;;5116749;27;20030;-77
2022/10/19 01:30:47;;;;;;;6.22;4.15;;;13.40;83.00;;;;;;5117101;27;20024;-77
2022/10/19 01:33:38;;;;;;;8.25;4.78;;;13.40;83.10;;;;;;5116710;27;20487;-76
2022/10/19 01:36:10;;;;;;;9.52;4.78;;;13.40;83.40;;;;;;5116741;27;20046;-76
2022/10/19 01:39:06;;;;;;;6.55;4.47;;;13.40;83.60;;;;;;5116862;27;20038;-76
2022/10/19 01:41:50;;;;;;;10.57;5.18;;;13.40;83.60;;;;;;5116773;28;20023;-76
2022/10/19 01:44:49;;;;;;;6.65;4.57;;;13.40;83.70;;;;;;5116962;27;20506;-76
2022/10/19 01:47:20;;;;;;;8.98;5.03;;;13.40;83.40;;;;;;5116510;27;20023;-76
2022/10/19 01:49:53;;;;;;;6.18;4.72;;;13.40;83.20;;;;;;5116881;27;20027;-75
2022/10/19 01:52:22;;;;;;;7.93;4.65;;;13.40;84.10;;;;;;5117364;27;20031;-76
2022/10/19 01:54:51;;;;;;;6.35;4.53;;;13.40;83.20;;;;;;5116943;27;20026;-76
2022/10/19 01:57:32;;;;;;;8.35;5.03;;;13.40;83.10;;;;;;5116581;27;20025;-75
2022/10/19 02:00:06;;;;;;;10.23;5.85;;;13.50;83.00;;;;;;5116914;27;20023;-76
2022/10/19 02:02:35;;;;;;;8.43;4.85;;;13.50;84.00;;;;;;5116365;27;20479;-77
2022/10/19 02:05:04;;;;;;;10.43;4.10;;;13.40;83.10;;;;;;5116616;27;20023;-77
2022/10/19 02:07:32;;;;;;;4.55;3.47;;;13.40;82.60;;;;;;5115923;27;20023;-77
2022/10/19 02:09:58;;;;;;;7.93;3.45;;;13.40;82.30;;;;;;5116192;27;20402;-77
2022/10/19 02:12:25;;;;;;;5.35;3.30;;;13.40;81.80;;;;;;5116187;27;20123;-77
2022/10/19 02:14:54;;;;;;;7.03;3.25;;;13.30;80.90;;;;;;5116203;27;20023;-77
2022/10/19 02:17:25;;;;;;;5.13;3.90;;;13.30;80.80;;;;;;5115933;27;20019;-77
2022/10/19 02:19:52;;;;;;;5.13;3.67;;;13.30;80.80;;;;;;5117914;27;20023;-77
2022/10/19 02:22:18;;;;;;;6.70;3.53;;;13.20;80.80;;;;;;5116654;27;20098;-77
2022/10/19 02:24:44;;;;;;;4.72;3.47;;;13.20;80.90;;;;;;5136312;27;20105;-77
2022/10/19 02:27:10;;;;;;;6.60;3.70;;;13.20;80.90;;;;;;5117330;27;20459;-77
2022/10/19 02:29:37;;;;;;;6.78;3.42;;;13.20;80.70;;;;;;5115925;27;20027;-77
2022/10/19 02:32:04;;;;;;;3.88;3.40;;;13.20;80.60;;;;;;5115933;27;20041;-77
2022/10/19 02:34:30;;;;;;;3.75;2.85;;;13.10;80.60;;;;;;5112508;28;20048;-77
2022/10/19 02:36:55;;;;;;;3.72;3.10;;;13.10;80.60;;;;;;5095650;28;20028;-77
2022/10/19 02:39:21;;;;;;;5.35;3.17;;;13.20;80.60;;;;;;5112439;28;20508;-77
2022/10/19 02:42:17;;;;;;;5.70;3.95;;;13.20;80.50;;;;;;5112497;28;20034;-76
2022/10/19 02:45:19;;;;;;;5.22;3.63;;;13.10;80.20;;;;;;5109195;28;20035;-76
2022/10/19 02:48:16;;;;;;;5.93;3.65;;;13.10;80.00;;;;;;5098123;28;20465;-76
2022/10/19 02:50:46;;;;;;;5.40;3.45;;;12.90;80.10;;;;;;5105574;28;20110;-76
2022/10/19 02:53:12;;;;;;;5.82;3.88;;;12.90;80.50;;;;;;5112008;28;20039;-77
2022/10/19 02:55:38;;;;;;;6.35;3.40;;;12.90;80.80;;;;;;5112339;28;20491;-77
2022/10/19 02:58:04;;;;;;;5.35;3.47;;;13.00;81.70;;;;;;5112238;28;20032;-77
2022/10/19 03:00:30;;;;;;;5.60;3.67;;;13.00;80.70;;;;;;5129031;28;20027;-76
2022/10/19 03:02:56;;;;;;;6.82;3.50;;;13.10;80.70;;;;;;5129177;28;20034;-77
2022/10/19 03:05:21;;;;;;;6.93;3.78;;;13.10;80.50;;;;;;5129427;28;20450;-76
2022/10/19 03:07:47;;;;;;;6.43;3.28;;;13.10;80.20;;;;;;5129369;28;20024;-77
2022/10/19 03:10:13;;;;;;;11.23;3.95;;;13.20;80.80;;;;;;5128908;28;20127;-77
2022/10/19 03:12:38;;;;;;;5.15;3.67;;;13.20;79.90;;;;;;5129138;28;20035;-77
2022/10/19 03:15:04;;;;;;;4.60;2.83;;;13.30;79.90;;;;;;5129041;28;20114;-77
2022/10/19 03:17:30;;;;;;;4.15;3.20;;;13.20;79.60;;;;;;5111688;28;20039;-77
2022/10/19 03:19:55;;;;;;;4.75;2.85;;;13.20;79.60;;;;;;5129308;28;20030;-77
2022/10/19 03:22:21;;;;;;;4.32;3.13;;;13.30;79.60;;;;;;5129159;28;20480;-77
2022/10/19 03:24:47;;;;;;;6.10;3.40;;;13.20;79.30;;;;;;5128900;28;20375;-76
2022/10/19 03:27:14;;;;;;;8.25;3.63;;;13.30;79.50;;;;;;5128508;28;20035;-77
2022/10/19 03:29:39;;;;;;;7.45;3.60;;;13.30;79.60;;;;;;5128863;28;20043;-76
2022/10/19 03:32:05;;;;;;;5.35;3.60;;;13.20;79.40;;;;;;5128777;28;20472;-77
2022/10/19 03:34:30;;;;;;;4.80;3.58;;;13.20;79.70;;;;;;5111659;28;20131;-77
2022/10/19 03:36:58;;;;;;;6.30;3.55;;;13.20;79.90;;;;;;5128363;28;20034;-77
2022/10/19 03:39:23;;;;;;;5.88;3.40;;;13.20;80.30;;;;;;5128877;28;20019;-76
2022/10/19 03:41:49;;;;;;;3.95;3.53;;;13.20;80.50;;;;;;5111803;28;20022;-76
2022/10/19 03:44:14;;;;;;;6.90;4.20;;;13.20;81.50;;;;;;5128312;28;20024;-75
2022/10/19 03:46:40;;;;;;;4.45;3.38;;;13.20;80.90;;;;;;5127379;28;20081;-76
2022/10/19 03:49:07;;;;;;;6.88;3.90;;;13.20;81.10;;;;;;5128436;28;20024;-77
2022/10/19 03:51:34;;;;;;;4.38;3.58;;;13.30;81.20;;;;;;5110064;28;20454;-76
2022/10/19 03:54:03;;;;;;;6.50;3.83;;;13.30;81.20;;;;;;5111269;28;20019;-76
2022/10/19 03:56:29;;;;;;;5.03;3.70;;;13.30;81.70;;;;;;5092891;28;20031;-76
2022/10/19 03:58:57;;;;;;;6.15;3.80;;;13.30;80.90;;;;;;5110658;28;20484;-76
2022/10/19 04:01:29;;;;;;;6.00;3.50;;;13.30;81.00;;;;;;5111588;28;20046;-77
2022/10/19 04:03:56;;;;;;;6.45;3.80;;;13.30;81.00;;;;;;5111443;28;20395;-76
2022/10/19 04:06:25;;;;;;;8.57;4.32;;;13.30;80.90;;;;;;5114237;28;20488;-76
2022/10/19 04:08:52;;;;;;;9.98;4.75;;;13.20;80.80;;;;;;5116310;28;20035;-76
2022/10/19 04:11:22;;;;;;;10.65;5.40;;;13.20;81.20;;;;;;5114868;28;20118;-76
2022/10/19 04:13:49;;;;;;;18.27;9.55;;;13.20;81.30;;;;;;5114823;28;20027;-76
2022/10/19 04:16:15;;;;;;;17.23;9.00;;;13.10;81.50;;;;;;5114784;28;20076;-77
2022/10/19 04:18:41;;;;;;;21.75;11.65;;;13.10;81.40;;;;;;5114845;28;20028;-77
2022/10/19 04:21:17;;;;;;;19.15;11.98;;;13.00;81.60;;;;;;5114606;28;20114;-77
2022/10/19 04:23:43;;;;;;;18.92;11.80;;;13.00;81.50;;;;;;5114774;28;20065;-77
2022/10/19 04:26:09;;;;;;;20.67;11.38;;;13.00;81.50;;;;;;5131590;27;20084;-77
2022/10/19 04:28:34;;;;;;;18.98;10.38;;;13.00;81.50;;;;;;5135265;27;20024;-77
2022/10/19 04:31:04;;;;;;;16.80;8.50;;;13.00;81.60;;;;;;5132002;27;20028;-77
2022/10/19 04:33:30;;;;;;;9.00;6.47;;;13.00;81.50;;;;;;5114831;28;20539;-77
2022/10/19 04:36:05;;;;;;;7.40;5.03;;;12.90;81.20;;;;;;5114434;28;20078;-77
2022/10/19 04:38:31;;;;;;;9.43;4.40;;;12.90;81.30;;;;;;5114433;28;20383;-77
2022/10/19 04:41:05;;;;;;;5.72;4.25;;;12.90;81.40;;;;;;5114432;28;20019;-77
2022/10/19 04:43:31;;;;;;;7.35;4.63;;;12.90;81.60;;;;;;5114627;28;20031;-77
2022/10/19 04:46:04;;;;;;;8.02;4.88;;;12.90;81.70;;;;;;5114698;28;20020;-77
2022/10/19 04:48:30;;;;;;;8.95;4.40;;;12.80;81.90;;;;;;5114026;28;20050;-77
2022/10/19 04:50:55;;;;;;;7.30;4.13;;;12.70;82.20;;;;;;5131377;27;20059;-76
2022/10/19 04:53:21;;;;;;;12.68;6.28;;;12.70;82.10;;;;;;5131065;27;20028;-77
2022/10/19 04:55:46;;;;;;;14.77;6.97;;;12.70;82.00;;;;;;5131564;27;20020;-77
2022/10/19 04:58:13;;;;;;;11.77;6.60;;;12.60;82.90;;;;;;5131172;27;20024;-77
2022/10/19 05:00:39;;;;;;;7.82;5.90;;;12.50;82.80;;;;;;5131285;27;20024;-77
2022/10/19 05:03:04;;;;;;;7.00;5.47;;;12.40;83.40;;;;;;5131140;27;20103;-77
2022/10/19 05:05:32;;;;;;;4.63;4.03;;;12.10;85.10;;;;;;5131050;27;20027;-77
2022/10/19 05:07:57;;;;;;;7.85;4.38;;;12.00;85.50;;;;;;5113653;28;20027;-77
2022/10/19 05:10:23;;;;;;;5.57;4.30;;;12.10;85.50;;;;;;5131000;27;20356;-77
2022/10/19 05:12:49;;;;;;;9.18;4.65;;;12.20;85.10;;;;;;5130953;27;20028;-77
2022/10/19 05:15:14;;;;;;;5.40;4.30;;;12.30;85.10;;;;;;5130711;27;20019;-77
2022/10/19 05:17:40;;;;;;;4.88;3.85;;;12.40;84.70;;;;;;5130703;27;20023;-77
2022/10/19 05:20:06;;;;;;;5.75;4.32;;;12.50;84.60;;;;;;5130769;27;20019;-77
2022/10/19 05:22:32;;;;;;;10.10;4.82;;;12.50;84.30;;;;;;5112961;28;20027;-77
2022/10/19 05:24:57;;;;;;;6.25;4.43;;;12.60;85.10;;;;;;5113428;28;20104;-77
2022/10/19 05:27:23;;;;;;;6.80;4.57;;;12.70;83.90;;;;;;5130812;27;20380;-77
2022/10/19 05:29:48;;;;;;;8.23;4.80;;;12.70;83.80;;;;;;5113363;28;20426;-77
2022/10/19 05:32:15;;;;;;;8.27;4.47;;;12.70;83.70;;;;;;5130327;27;20475;-77
2022/10/19 05:34:42;;;;;;;8.48;4.60;;;12.80;83.10;;;;;;5129133;27;20051;-76
2022/10/19 05:37:08;;;;;;;14.45;6.72;;;12.80;82.90;;;;;;5129531;27;20111;-77
2022/10/19 05:39:33;;;;;;;18.45;7.43;;;12.80;82.50;;;;;;5113348;28;20062;-77
2022/10/19 05:41:59;;;;;;;16.92;8.00;;;12.80;82.40;;;;;;5130195;27;20107;-77
2022/10/19 05:44:24;;;;;;;13.02;7.30;;;12.80;82.00;;;;;;5130301;27;20053;-77
2022/10/19 05:46:51;;;;;;;8.70;5.80;;;12.60;82.70;;;;;;5130311;27;20103;-77
2022/10/19 05:49:19;;;;;;;15.95;6.90;;;12.50;83.00;;;;;;5129293;27;20098;-77
2022/10/19 05:51:46;;;;;;;14.05;7.18;;;12.60;83.10;;;;;;5113635;28;20028;-77
2022/10/19 05:54:13;;;;;;;8.13;5.50;;;12.60;83.20;;;;;;5095565;28;20051;-77
2022/10/19 05:56:39;;;;;;;9.10;4.72;;;12.70;83.00;;;;;;5112831;28;20535;-76
2022/10/19 05:59:07;;;;;;;15.32;5.63;;;12.70;82.90;;;;;;5112718;28;20167;-76
2022/10/19 06:01:34;;;;;;;6.80;5.18;;;12.70;83.60;;;;;;5112124;28;20081;-76
2022/10/19 06:04:01;;;;;;;7.68;4.53;;;12.70;82.70;;;;;;5129466;27;20104;-75
2022/10/19 06:06:29;;;;;;;5.63;4.53;;;12.80;82.70;;;;;;5112488;28;20020;-77
2022/10/19 06:08:56;;;;;;;12.80;7.32;;;12.70;82.80;;;;;;5112991;27;20108;-77
2022/10/19 06:11:33;;;;;;;16.25;7.68;;;12.80;83.10;;;;;;5111981;28;20494;-77
2022/10/19 06:14:01;;;;;;;15.25;8.15;;;12.80;83.00;;;;;;5112824;28;20027;-77
2022/10/19 06:16:29;;;;;;;19.38;9.57;;;12.80;83.00;;;;;;5116825;28;20392;-77
2022/10/19 06:18:56;;;;;;;13.70;8.18;;;12.90;83.00;;;;;;5120355;28;20472;-77
2022/10/19 06:21:24;;;;;;;16.52;9.10;;;13.00;82.90;;;;;;5113666;28;20373;-77
2022/10/19 06:23:56;;;;;;;16.42;8.05;;;13.00;82.80;;;;;;5112442;28;20024;-77
2022/10/19 06:26:23;;;;;;;12.50;7.13;;;13.10;82.90;;;;;;5112199;28;20030;-77
2022/10/19 06:28:49;;;;;;;12.52;6.07;;;13.10;82.70;;;;;;5111475;28;20020;-77
2022/10/19 06:31:15;;;;;;;10.65;5.47;;;13.10;82.10;;;;;;5111988;28;20020;-77
2022/10/19 06:33:43;;;;;;;8.15;4.88;;;13.10;82.00;;;;;;5112403;28;20023;-77
2022/10/19 06:36:15;;;;;;;11.98;5.07;;;13.20;81.80;;;;;;5111680;28;20043;-76
2022/10/19 06:38:41;;;;;;;9.25;4.50;;;13.20;81.50;;;;;;5112254;28;20051;-76
2022/10/19 06:41:08;;;;;;;7.72;4.75;;;13.20;81.70;;;;;;5111827;28;20020;-76
2022/10/19 06:43:34;;;;;;;6.93;3.88;;;13.30;81.60;;;;;;5111984;28;20034;-76
2022/10/19 06:46:19;;;;;;;8.15;4.25;;;13.30;81.60;;;;;;5111737;28;20016;-75
2022/10/19 06:48:51;;;;;;;6.47;4.07;;;13.30;81.70;;;;;;5112236;28;20582;-74
2022/10/19 06:51:17;;;;;;;7.57;4.63;;;13.40;81.80;;;;;;5111807;28;20026;-76
2022/10/19 06:53:42;;;;;;;10.65;4.50;;;13.40;81.70;;;;;;5128891;28;20475;-77
2022/10/19 06:56:09;;;;;;;9.32;5.20;;;13.50;81.70;;;;;;5129017;28;20030;-74
2022/10/19 06:58:36;;;;;;;8.35;5.18;;;13.50;81.70;;;;;;5111753;28;20502;-76
2022/10/19 07:01:02;;;;;;;9.52;4.70;;;13.50;81.80;;;;;;5111890;28;20468;-77
2022/10/19 07:03:29;;;;;;;14.57;4.95;;;13.60;81.80;;;;;;5112099;28;20027;-80
2022/10/19 07:05:57;;;;;;;14.50;6.20;;;13.90;87.10;;;;;;5111648;28;20034;-82
2022/10/19 07:08:24;;;;;;;16.15;6.70;;;14.10;88.30;;;;;;5111467;28;20472;-79
2022/10/19 07:10:52;;;;;;;28.20;7.70;;;14.30;85.00;;;;;;5111703;28;20078;-83
2022/10/19 07:13:18;;;;;;;17.38;6.15;;;14.60;83.70;;;;;;5113144;28;20461;-78
2022/10/19 07:15:45;;;;;;;10.05;5.68;;;14.90;81.60;;;;;;5128714;28;20081;-77
2022/10/19 07:18:10;;;;;;;12.60;6.13;;;14.90;79.10;;;;;;5129200;28;20178;-78
2022/10/19 07:20:36;;;;;;;15.13;6.72;;;15.00;78.70;;;;;;5129094;28;20107;-78
2022/10/19 07:23:02;;;;;;;13.75;8.35;;;14.90;79.40;;;;;;5128793;28;20043;-78
2022/10/19 07:25:29;;;;;;;16.02;9.45;;;14.80;78.60;;;;;;5094528;28;20549;-77
2022/10/19 07:27:55;;;;;;;18.13;10.80;;;14.80;78.70;;;;;;5113297;28;20043;-77
2022/10/19 07:30:21;;;;;;;18.67;10.38;;;14.80;78.80;;;;;;5111835;28;20080;-78
2022/10/19 07:32:47;;;;;;;18.40;11.35;;;14.80;78.90;;;;;;5111727;28;20035;-78
2022/10/19 07:35:13;;;;;;;15.85;9.63;;;14.70;79.70;;;;;;5114931;28;20491;-77
2022/10/19 07:37:39;;;;;;;14.57;8.60;;;14.70;80.20;;;;;;5132066;28;20058;-76
2022/10/19 07:40:05;;;;;;;11.50;7.20;;;14.80;80.30;;;;;;5132621;27;20057;-78
2022/10/19 07:42:30;;;;;;;15.07;8.80;;;14.80;80.50;;;;;;5118478;27;20019;-78
2022/10/19 07:44:56;;;;;;;10.50;6.18;;;14.90;81.20;;;;;;5135574;27;20031;-77
2022/10/19 07:47:21;;;;;;;14.88;7.90;;;14.90;82.20;;;;;;5135998;27;20547;-78
2022/10/19 07:49:47;;;;;;;11.40;6.55;;;15.00;81.80;;;;;;5135973;27;20019;-77
2022/10/19 07:52:13;;;;;;;12.57;7.40;;;15.00;82.00;;;;;;5135616;27;20368;-77
2022/10/19 07:54:38;;;;;;;11.68;5.97;;;15.10;82.20;;;;;;5135711;27;20027;-78
2022/10/19 07:57:04;;;;;;;9.73;5.65;;;15.10;82.00;;;;;;5136049;27;20376;-77
2022/10/19 07:59:29;;;;;;;11.55;6.97;;;15.20;82.00;;;;;;5118692;27;20386;-76
2022/10/19 08:01:56;;;;;;;13.63;6.82;;;15.30;82.60;;;;;;5135231;27;20023;-75
2022/10/19 08:04:22;;;;;;;10.48;6.32;;;15.30;82.70;;;;;;5135639;27;20122;-77
2022/10/19 08:06:48;;;;;;;11.40;6.25;;;15.30;83.20;;;;;;5118214;27;20105;-77
2022/10/19 08:09:14;;;;;;;10.48;6.53;;;15.40;83.00;;;;;;5118325;27;20074;-77
2022/10/19 08:11:39;;;;;;;8.98;6.35;;;15.50;82.70;;;;;;5118136;27;20126;-75
2022/10/19 08:14:05;;;;;;;18.33;8.45;;;15.60;82.40;;;;;;5135381;27;20043;-77
2022/10/19 08:16:39;;;;;;;16.55;7.82;;;15.70;82.30;;;;;;5135230;27;20479;-76
2022/10/19 08:19:13;;;;;;;13.60;8.13;;;15.80;82.00;;;;;;5118151;27;20527;-76
2022/10/19 08:21:41;;;;;;;14.63;8.10;;;15.90;81.80;;;;;;5118360;27;20205;-76
2022/10/19 08:24:07;;;;;;;11.60;7.35;;;15.90;81.70;;;;;;5118286;27;20467;-76
2022/10/19 08:26:38;;;;;;;10.48;6.38;;;16.00;81.60;;;;;;5136589;27;20095;-76
2022/10/19 08:29:07;;;;;;;17.60;9.10;;;16.10;81.30;;;;;;5118149;27;20043;-76
2022/10/19 08:31:33;;;;;;;10.63;7.50;;;16.20;80.40;;;;;;5117605;27;20508;-77
2022/10/19 08:33:59;;;;;;;13.85;8.02;;;16.30;80.10;;;;;;5117265;27;20387;-76
2022/10/19 08:36:25;;;;;;;9.32;7.05;;;16.50;80.00;;;;;;5134639;27;20023;-75
2022/10/19 08:38:51;;;;;;;11.77;7.75;;;16.80;78.90;;;;;;5134897;27;20463;-76
2022/10/19 08:41:25;;;;;;;11.98;6.95;;;17.00;78.60;;;;;;5117584;27;20023;-77
2022/10/19 08:44:22;;;;;;;10.60;7.35;;;17.40;77.80;;;;;;5117524;27;20501;-77
2022/10/19 08:47:17;;;;;;;9.60;6.70;;;17.60;76.20;;;;;;5117796;27;20023;-77
2022/10/19 08:49:45;;;;;;;12.13;6.75;;;17.90;75.10;;;;;;5117098;27;20478;-77
2022/10/19 08:52:16;;;;;;;11.30;6.03;;;18.10;74.20;;;;;;5116737;27;20043;-76
2022/10/19 08:54:58;;;;;;;10.93;6.03;;;18.10;73.90;;;;;;5117870;27;20019;-76
2022/10/19 08:58:04;;;;;;;9.60;6.00;;;18.20;73.80;;;;;;5117546;27;20466;-77
2022/10/19 09:00:42;;;;;;;7.78;5.10;;;18.20;73.50;;;;;;5117594;27;20370;-77
2022/10/19 09:03:23;;;;;;;10.85;6.43;;;18.30;73.40;;;;;;5117502;27;20059;-77
2022/10/19 09:05:56;;;;;;;4.68;3.42;;;18.40;73.10;;;;;;5116635;27;20035;-77
2022/10/19 09:08:22;;;;;;;4.90;3.67;;;18.30;72.10;;;;;;5116279;27;20025;-77
2022/10/19 09:10:52;;;;;;;6.55;3.70;;;18.50;71.20;;;;;;5134548;27;20099;-77
2022/10/19 09:13:42;;;;;;;6.82;3.55;;;18.60;70.80;;;;;;5116864;27;20039;-76
2022/10/19 09:16:12;;;;;;;6.22;3.58;;;18.60;70.40;;;;;;5117224;27;20110;-76
2022/10/19 09:18:38;;;;;;;5.07;2.85;;;18.70;69.50;;;;;;5116191;27;20076;-77
2022/10/19 09:21:27;;;;;;;5.25;3.38;;;18.90;69.00;;;;;;5134139;27;20395;-77
2022/10/19 09:23:59;;;;;;;5.88;3.70;;;18.90;69.40;;;;;;5116812;27;20360;-76
2022/10/19 09:26:28;;;;;;;4.97;3.25;;;18.80;69.70;;;;;;5116484;27;20023;-76
2022/10/19 09:29:04;;;;;;;2.90;2.35;;;18.90;68.40;;;;;;5117076;27;20038;-77
2022/10/19 09:31:32;;;;;;;2.88;2.25;;;19.00;68.60;;;;;;5116247;27;20031;-76
2022/10/19 09:34:05;;;;;;;6.88;3.00;;;19.20;67.60;;;;;;5116138;27;20075;-77
2022/10/19 09:36:39;;;;;;;4.13;2.55;;;19.40;67.80;;;;;;5116519;27;20019;-76
2022/10/19 09:39:05;;;;;;;7.72;2.60;;;19.50;66.60;;;;;;5115798;27;20110;-76
2022/10/19 09:41:32;;;;;;;2.83;1.92;;;19.60;66.00;;;;;;5116012;27;20050;-76
2022/10/19 09:43:58;;;;;;;3.60;2.55;;;19.80;65.80;;;;;;5116516;27;20081;-77
2022/10/19 09:46:50;;;;;;;2.90;2.00;;;20.10;65.30;;;;;;5116326;27;20046;-77
2022/10/19 09:49:17;;;;;;;4.70;2.00;;;20.40;64.50;;;;;;5116583;27;20027;-77
2022/10/19 09:51:50;;;;;;;2.83;2.20;;;20.80;63.90;;;;;;5099162;27;20081;-77
2022/10/19 09:54:26;;;;;;;6.72;2.25;;;21.00;61.10;;;;;;5134647;27;20023;-78
2022/10/19 09:56:54;;;;;;;3.83;2.15;;;21.30;60.90;;;;;;5116396;27;20068;-78
2022/10/19 09:59:22;;;;;;;3.35;2.13;;;21.40;60.00;;;;;;5116115;27;20023;-78
2022/10/19 10:02:02;;;;;;;2.60;1.50;;;21.50;60.50;;;;;;5115992;27;20390;-77
2022/10/19 10:04:29;;;;;;;5.05;1.95;;;21.90;60.10;;;;;;5115550;27;20050;-77
2022/10/19 10:06:56;;;;;;;2.58;1.70;;;22.20;58.30;;;;;;5133005;27;20463;-78
2022/10/19 10:09:25;;;;;;;6.80;1.70;;;22.20;57.00;;;;;;5115274;27;20113;-77
2022/10/19 10:11:53;;;;;;;3.45;1.85;;;22.30;56.70;;;;;;5115536;27;20471;-78
2022/10/19 10:14:26;;;;;;;3.08;2.60;;;22.40;56.30;;;;;;5116033;27;20038;-78
2022/10/19 10:17:16;;;;;;;4.72;1.58;;;22.30;55.40;;;;;;5115894;27;20551;-80
2022/10/19 10:20:05;;;;;;;2.13;1.75;;;21.90;56.90;;;;;;5100053;27;20499;-76
2022/10/19 10:22:34;;;;;;;1.98;1.63;;;22.00;57.90;;;;;;5115390;27;20023;-77
2022/10/19 10:25:01;;;;;;;3.50;1.60;;;22.40;57.10;;;;;;5115858;27;20391;-76
2022/10/19 10:27:36;;;;;;;3.80;2.28;;;22.70;56.10;;;;;;5115296;27;20426;-76
2022/10/19 10:30:15;;;;;;;3.97;1.83;;;23.10;54.70;;;;;;5115773;27;20023;-77
2022/10/19 10:32:50;;;;;;;3.00;1.90;;;23.40;53.70;;;;;;5115402;27;20035;-76
2022/10/19 10:35:23;;;;;;;3.13;1.70;;;23.60;52.30;;;;;;5115509;27;20046;-76
2022/10/19 10:37:49;;;;;;;3.22;1.75;;;23.80;51.10;;;;;;5098480;27;20040;-76
2022/10/19 10:40:26;;;;;;;2.30;2.00;;;23.90;51.10;;;;;;5132560;27;20019;-77
2022/10/19 10:42:56;;;;;;;2.78;2.08;;;23.70;49.90;;;;;;5115474;27;20023;-77
2022/10/19 10:45:32;;;;;;;4.47;1.90;;;23.50;50.60;;;;;;5114878;27;20019;-76
2022/10/19 10:48:10;;;;;;;3.95;2.33;;;22.80;51.90;;;;;;5114905;28;20035;-82
2022/10/19 10:50:37;;;;;;;5.28;2.38;;;22.10;54.30;;;;;;5099653;27;20023;-77
2022/10/19 10:53:26;;;;;;;5.32;2.42;;;21.80;55.20;;;;;;5118274;27;20070;-79
2022/10/19 10:55:57;;;;;;;4.22;2.40;;;21.60;55.90;;;;;;5116108;28;20024;-77
2022/10/19 10:58:49;;;;;;;3.78;1.80;;;21.20;58.00;;;;;;5134805;28;20580;-78
2022/10/19 11:01:27;;;;;;;2.78;1.70;;;21.20;57.70;;;;;;5115923;28;20051;-77
2022/10/19 11:04:03;;;;;;;4.28;2.33;;;21.20;57.80;;;;;;5134666;28;20035;-78
2022/10/19 11:06:35;;;;;;;3.40;1.50;;;21.30;57.30;;;;;;5115965;28;20420;-76
2022/10/19 11:09:23;;;;;;;2.20;1.50;;;21.30;57.20;;;;;;5115486;28;20046;-76
2022/10/19 11:11:54;;;;;;;4.15;2.13;;;21.50;57.50;;;;;;5115471;28;20027;-78
2022/10/19 11:14:47;;;;;;;5.35;2.30;;;21.60;57.20;;;;;;5116385;27;20037;-78
2022/10/19 11:17:28;;;;;;;6.25;1.90;;;21.40;57.50;;;;;;5119113;27;20392;-76
2022/10/19 11:19:54;;;;;;;4.25;2.05;;;21.50;57.10;;;;;;5119365;27;20032;-76
2022/10/19 11:23:03;;;;;;;4.78;2.00;;;21.60;57.30;;;;;;5119092;27;20062;-78
2022/10/19 11:25:43;;;;;;;2.08;1.65;;;22.00;56.30;;;;;;5118964;27;20027;-78
2022/10/19 11:28:46;;;;;;;3.85;2.30;;;22.20;54.60;;;;;;5118808;27;20379;-77
2022/10/19 11:31:26;;;;;;;2.53;1.90;;;22.30;53.70;;;;;;5118442;27;20563;-77
2022/10/19 11:34:14;;;;;;;5.43;2.15;;;22.20;53.50;;;;;;5137290;27;20437;-77
2022/10/19 11:37:07;;;;;;;9.00;1.60;;;22.30;53.80;;;;;;5119113;27;20506;-78
2022/10/19 11:39:54;;;;;;;3.53;2.55;;;22.40;54.00;;;;;;5137398;27;20114;-77
2022/10/19 11:42:43;;;;;;;2.95;1.90;;;22.40;52.90;;;;;;5119158;27;20023;-78
2022/10/19 11:45:21;;;;;;;5.93;1.85;;;22.30;53.10;;;;;;5118830;27;20375;-76
2022/10/19 11:48:32;;;;;;;3.30;2.25;;;22.10;53.50;;;;;;5118688;27;20023;-77
2022/10/19 11:51:05;;;;;;;3.35;2.00;;;22.00;53.40;;;;;;5118919;27;20015;-78
2022/10/19 11:53:42;;;;;;;2.08;1.77;;;22.00;53.80;;;;;;5119871;27;20550;-78
2022/10/19 11:56:32;;;;;;;2.95;2.60;;;22.20;53.30;;;;;;5118598;27;20467;-78
2022/10/19 11:59:22;;;;;;;4.78;2.50;;;22.40;52.10;;;;;;5119239;27;20019;-78
2022/10/19 12:02:42;;;;;;;4.05;2.80;;;22.60;52.10;;;;;;5119707;27;20035;-78
2022/10/19 12:05:38;;;;;;;4.95;2.92;;;22.60;51.50;;;;;;5076740;28;20127;-78
2022/10/19 12:08:25;;;;;;;4.05;3.30;;;22.50;52.00;;;;;;5060251;28;20028;-80
2022/10/19 12:11:15;;;;;;;5.65;3.28;;;22.40;52.70;;;;;;5077938;28;20027;-80
2022/10/19 12:13:53;;;;;;;4.47;3.17;;;22.30;52.90;;;;;;5076981;28;20044;-79
2022/10/19 12:16:20;;;;;;;6.03;2.97;;;22.30;52.40;;;;;;5076605;28;20110;-79
2022/10/19 12:18:53;;;;;;;5.22;3.60;;;22.20;53.20;;;;;;5076650;28;20035;-79
2022/10/19 12:21:28;;;;;;;5.40;3.90;;;22.10;52.70;;;;;;5076514;28;20036;-79
2022/10/19 12:23:56;;;;;;;6.55;4.03;;;22.20;52.90;;;;;;5076374;28;20059;-80
2022/10/19 12:26:23;;;;;;;7.30;3.90;;;22.20;52.70;;;;;;5075779;28;20028;-80
2022/10/19 12:28:57;;;;;;;8.15;3.38;;;22.20;52.90;;;;;;5076378;28;20523;-80
2022/10/19 12:31:25;;;;;;;7.18;4.20;;;22.40;53.00;;;;;;5076295;28;20036;-78
2022/10/19 12:34:08;;;;;;;6.30;3.72;;;22.80;51.30;;;;;;5075623;28;20181;-79
2022/10/19 12:36:59;;;;;;;3.58;2.85;;;22.90;50.40;;;;;;5109704;27;20095;-79
2022/10/19 12:39:40;;;;;;;4.30;2.80;;;23.10;48.80;;;;;;5117422;27;20371;-79
2022/10/19 12:42:28;;;;;;;5.50;3.25;;;23.30;49.10;;;;;;5117965;27;20023;-79
2022/10/19 12:45:12;;;;;;;7.72;3.10;;;23.50;47.80;;;;;;5117713;27;20019;-79
2022/10/19 12:47:39;;;;;;;5.43;3.17;;;23.30;48.40;;;;;;5136209;27;20063;-80
2022/10/19 12:50:05;;;;;;;4.35;3.38;;;23.60;48.30;;;;;;5117547;27;20023;-80
2022/10/19 12:52:52;;;;;;;5.53;3.33;;;23.60;47.90;;;;;;5117002;27;20035;-80
2022/10/19 12:55:25;;;;;;;5.57;3.03;;;23.10;49.40;;;;;;5117783;27;20047;-78
2022/10/19 12:58:03;;;;;;;8.90;3.88;;;22.60;50.40;;;;;;5117485;27;20026;-80
2022/10/19 13:00:35;;;;;;;5.78;3.83;;;22.00;52.30;;;;;;5117326;27;20027;-80
2022/10/19 13:03:19;;;;;;;7.35;3.45;;;21.60;53.90;;;;;;5116959;27;20023;-78
2022/10/19 13:05:58;;;;;;;6.90;3.78;;;21.70;53.60;;;;;;5117148;27;20023;-78
2022/10/19 13:08:29;;;;;;;7.25;3.95;;;21.70;53.70;;;;;;5117022;27;20019;-79